createdAt,value
2019-04-07T00:00:47.600Z,101358.87
2019-04-07T00:02:26.836Z,101359.34
2019-04-07T00:04:06.914Z,101362.45
2019-04-07T00:05:46.102Z,101361.11
2019-04-07T00:07:26.297Z,101360.62
2019-04-07T00:09:09.753Z,101357.98
2019-04-07T00:10:48.633Z,101359.78
2019-04-07T00:12:29.870Z,101360.23
2019-04-07T00:14:09.268Z,101358.91
2019-04-07T00:15:47.553Z,101352.23
2019-04-07T00:17:26.439Z,101350.88
2019-04-07T00:19:11.124Z,101358.03
2019-04-07T00:20:50.180Z,101356.69
2019-04-07T00:22:28.056Z,101358.02
2019-04-07T00:24:07.513Z,101349.14
2019-04-07T00:25:45.576Z,101351.77
2019-04-07T00:27:24.735Z,101355.80
2019-04-07T00:29:03.268Z,101352.22
2019-04-07T00:30:42.951Z,101354.45
2019-04-07T00:32:22.190Z,101351.80
2019-04-07T00:34:01.851Z,101352.67
2019-04-07T00:35:41.109Z,101345.58
2019-04-07T00:37:21.046Z,101350.89
2019-04-07T00:39:00.554Z,101346.41
2019-04-07T00:40:41.577Z,101350.45
2019-04-07T00:42:20.716Z,101349.10
2019-04-07T00:44:00.193Z,101350.00
2019-04-07T00:45:39.476Z,101348.69
2019-04-07T00:47:18.732Z,101350.53
2019-04-07T00:48:57.834Z,101349.63
2019-04-07T00:50:37.227Z,101350.44
2019-04-07T00:52:18.343Z,101344.70
2019-04-07T00:53:58.286Z,101350.98
2019-04-07T00:55:38.686Z,101348.30
2019-04-07T00:57:17.287Z,101350.50
2019-04-07T00:58:56.619Z,101350.09
2019-04-07T01:00:35.880Z,101349.21
2019-04-07T01:02:13.559Z,101351.00
2019-04-07T01:03:50.876Z,101346.56
2019-04-07T01:05:36.731Z,101345.63
2019-04-07T01:07:10.253Z,101348.77
2019-04-07T01:08:47.851Z,101342.98
2019-04-07T01:10:26.075Z,101342.08
2019-04-07T01:12:05.296Z,101343.88
2019-04-07T01:13:42.792Z,101343.43
2019-04-07T01:15:20.296Z,101341.19
2019-04-07T01:16:57.441Z,101343.89
2019-04-07T01:18:35.552Z,101342.55
2019-04-07T01:20:14.061Z,101344.31
2019-04-07T01:21:51.499Z,101344.75
2019-04-07T01:23:29.309Z,101339.41
2019-04-07T01:25:08.360Z,101339.42
2019-04-07T01:26:46.259Z,101338.52
2019-04-07T01:28:23.642Z,101341.20
2019-04-07T01:30:00.855Z,101338.08
2019-04-07T01:31:38.048Z,101340.31
2019-04-07T01:33:15.408Z,101339.43
2019-04-07T01:34:52.559Z,101335.89
2019-04-07T01:36:30.014Z,101335.88
2019-04-07T01:38:07.245Z,101337.66
2019-04-07T01:39:44.926Z,101332.33
2019-04-07T01:41:25.407Z,101330.97
2019-04-07T01:43:10.822Z,101327.42
2019-04-07T01:44:56.143Z,101331.44
2019-04-07T01:46:50.990Z,101334.11
2019-04-07T01:48:43.722Z,101335.46
2019-04-07T01:50:31.383Z,101338.56
2019-04-07T01:52:27.279Z,101336.34
2019-04-07T01:54:10.102Z,101337.25
2019-04-07T01:55:49.085Z,101332.34
2019-04-07T01:57:28.920Z,101330.58
2019-04-07T01:59:12.080Z,101333.67
2019-04-07T02:00:51.218Z,101339.02
2019-04-07T02:02:33.314Z,101339.48
2019-04-07T02:04:25.150Z,101332.36
2019-04-07T02:06:05.723Z,101327.88
2019-04-07T02:07:47.627Z,101326.09
2019-04-07T02:09:29.413Z,101333.69
2019-04-07T02:11:17.127Z,101332.34
2019-04-07T02:13:05.230Z,101333.22
2019-04-07T02:14:45.790Z,101337.69
2019-04-07T02:16:27.861Z,101332.34
2019-04-07T02:18:16.488Z,101335.02
2019-04-07T02:20:01.432Z,101334.13
2019-04-07T02:21:50.539Z,101342.14
2019-04-07T02:23:49.351Z,101339.89
2019-04-07T02:25:34.068Z,101342.56
2019-04-07T02:27:29.418Z,101341.23
2019-04-07T02:29:13.955Z,101340.34
2019-04-07T02:31:09.668Z,101341.66
2019-04-07T02:33:07.010Z,101338.55
2019-04-07T02:34:45.857Z,101341.22
2019-04-07T02:36:31.958Z,101342.06
2019-04-07T02:38:17.890Z,101342.06
2019-04-07T02:39:57.733Z,101340.73
2019-04-07T02:41:44.776Z,101338.97
2019-04-07T02:43:25.628Z,101340.28
2019-04-07T02:45:10.963Z,101339.82
2019-04-07T02:47:06.536Z,101345.63
2019-04-07T02:48:51.373Z,101338.03
2019-04-07T02:50:45.245Z,101337.59
2019-04-07T02:52:27.806Z,101342.48
2019-04-07T02:54:23.292Z,101338.47
2019-04-07T02:56:07.785Z,101334.05
2019-04-07T02:57:50.645Z,101341.60
2019-04-07T02:59:44.861Z,101345.16
2019-04-07T03:01:32.995Z,101335.83
2019-04-07T03:03:21.126Z,101340.70
2019-04-07T03:05:16.507Z,101338.48
2019-04-07T03:07:11.262Z,101333.61
2019-04-07T03:08:57.167Z,101335.39
2019-04-07T03:10:39.167Z,101335.36
2019-04-07T03:12:18.983Z,101337.14
2019-04-07T03:14:14.646Z,101339.34
2019-04-07T03:16:00.519Z,101334.91
2019-04-07T03:17:54.824Z,101336.69
2019-04-07T03:19:35.032Z,101338.50
2019-04-07T03:21:30.981Z,101339.38
2019-04-07T03:23:20.352Z,101340.27
2019-04-07T03:25:00.194Z,101341.19
2019-04-07T03:26:55.685Z,101342.52
2019-04-07T03:28:36.477Z,101342.50
2019-04-07T03:30:20.780Z,101340.73
2019-04-07T03:32:05.656Z,101339.00
2019-04-07T03:34:01.954Z,101344.34
2019-04-07T03:36:01.106Z,101339.44
2019-04-07T03:37:53.141Z,101341.67
2019-04-07T03:39:41.353Z,101344.80
2019-04-07T03:41:30.757Z,101346.14
2019-04-07T03:43:10.862Z,101343.90
2019-04-07T03:44:51.310Z,101342.58
2019-04-07T03:46:30.597Z,101345.24
2019-04-07T03:48:12.163Z,101342.14
2019-04-07T03:49:55.237Z,101339.02
2019-04-07T03:51:37.749Z,101344.38
2019-04-07T03:53:20.156Z,101342.14
2019-04-07T03:54:59.951Z,101350.14
2019-04-07T03:56:45.507Z,101342.14
2019-04-07T03:58:36.377Z,101342.58
2019-04-07T04:00:58.775Z,101343.91
2019-04-07T04:02:37.977Z,101343.02
2019-04-07T04:04:27.471Z,101342.08
2019-04-07T04:06:22.384Z,101347.46
2019-04-07T04:08:02.142Z,101342.50
2019-04-07T04:09:44.078Z,101337.99
2019-04-07T04:11:25.921Z,101337.51
2019-04-07T04:13:07.562Z,101337.88
2019-04-07T04:14:54.720Z,101342.30
2019-04-07T04:16:32.794Z,101345.18
2019-04-07T04:18:10.144Z,101345.23
2019-04-07T04:19:48.167Z,101351.47
2019-04-07T04:21:25.957Z,101346.83
2019-04-07T04:23:03.966Z,101350.36
2019-04-07T04:24:42.180Z,101350.31
2019-04-07T04:26:19.800Z,101342.50
2019-04-07T04:28:02.623Z,101345.16
2019-04-07T04:29:40.082Z,101352.67
2019-04-07T04:31:17.915Z,101341.91
2019-04-07T04:32:55.468Z,101344.04
2019-04-07T04:34:33.021Z,101347.43
2019-04-07T04:36:13.639Z,101341.63
2019-04-07T04:37:53.409Z,101340.11
2019-04-07T04:39:35.733Z,101350.52
2019-04-07T04:41:13.315Z,101346.19
2019-04-07T04:42:51.792Z,101350.18
2019-04-07T04:44:29.991Z,101358.20
2019-04-07T04:46:42.618Z,101357.73
2019-04-07T04:47:57.687Z,101354.03
2019-04-07T04:49:35.761Z,101356.22
2019-04-07T04:51:15.101Z,101364.09
2019-04-07T04:52:55.151Z,101356.79
2019-04-07T04:54:33.396Z,101358.02
2019-04-07T04:56:10.980Z,101361.45
2019-04-07T04:57:49.869Z,101352.75
2019-04-07T04:59:28.194Z,101356.98
2019-04-07T05:01:06.367Z,101354.64
2019-04-07T05:02:44.456Z,101357.80
2019-04-07T05:04:21.777Z,101358.09
2019-04-07T05:05:59.095Z,101351.58
2019-04-07T05:07:51.682Z,101348.56
2019-04-07T05:09:20.049Z,101345.91
2019-04-07T05:10:57.826Z,101340.89
2019-04-07T05:12:35.571Z,101344.92
2019-04-07T05:14:13.048Z,101340.75
2019-04-07T05:15:51.286Z,101337.36
2019-04-07T05:17:28.876Z,101337.11
2019-04-07T05:19:06.302Z,101336.55
2019-04-07T05:20:44.322Z,101329.75
2019-04-07T05:22:22.561Z,101328.89
2019-04-07T05:24:00.291Z,101324.13
2019-04-07T05:25:38.030Z,101326.15
2019-04-07T05:27:16.463Z,101323.22
2019-04-07T05:29:03.342Z,101326.27
2019-04-07T05:30:41.453Z,101326.34
2019-04-07T05:32:19.953Z,101332.58
2019-04-07T05:34:01.883Z,101329.17
2019-04-07T05:35:40.468Z,101326.59
2019-04-07T05:37:18.826Z,101336.09
2019-04-07T05:38:57.488Z,101333.62
2019-04-07T05:40:35.689Z,101341.94
2019-04-07T05:42:14.657Z,101331.94
2019-04-07T05:43:52.608Z,101337.88
2019-04-07T05:45:30.573Z,101335.81
2019-04-07T05:47:10.840Z,101336.81
2019-04-07T05:48:50.487Z,101339.44
2019-04-07T05:50:33.540Z,101343.27
2019-04-07T05:52:17.379Z,101339.83
2019-04-07T05:53:55.520Z,101341.48
2019-04-07T05:55:33.749Z,101342.25
2019-04-07T05:57:11.936Z,101344.86
2019-04-07T05:58:50.312Z,101339.02
2019-04-07T06:00:28.639Z,101339.91
2019-04-07T06:02:08.059Z,101343.98
2019-04-07T06:03:46.737Z,101340.58
2019-04-07T06:05:25.448Z,101345.29
2019-04-07T06:07:03.664Z,101343.20
2019-04-07T06:08:41.350Z,101343.09
2019-04-07T06:10:22.864Z,101339.55
2019-04-07T06:11:58.851Z,101340.82
2019-04-07T06:13:36.762Z,101328.80
2019-04-07T06:15:22.189Z,101331.62
2019-04-07T06:17:01.269Z,101329.84
2019-04-07T06:18:38.910Z,101332.81
2019-04-07T06:20:17.831Z,101329.75
2019-04-07T06:21:56.965Z,101326.33
2019-04-07T06:23:35.427Z,101326.61
2019-04-07T06:25:13.749Z,101321.48
2019-04-07T06:26:52.149Z,101330.47
2019-04-07T06:28:30.420Z,101318.69
2019-04-07T06:30:10.860Z,101319.68
2019-04-07T06:31:49.509Z,101320.75
2019-04-07T06:33:27.545Z,101313.27
2019-04-07T06:35:07.541Z,101307.68
2019-04-07T06:36:58.171Z,101312.17
2019-04-07T06:38:43.614Z,101304.33
2019-04-07T06:40:20.670Z,101306.52
2019-04-07T06:42:01.385Z,101312.30
2019-04-07T06:43:40.254Z,101309.81
2019-04-07T06:45:22.784Z,101316.11
2019-04-07T06:47:21.496Z,101310.03
2019-04-07T06:49:11.300Z,101301.19
2019-04-07T06:50:56.611Z,101304.34
2019-04-07T06:52:39.575Z,101302.31
2019-04-07T06:54:22.315Z,101298.85
2019-04-07T06:56:11.072Z,101300.59
2019-04-07T06:58:06.101Z,101292.27
2019-04-07T07:00:11.150Z,101292.86
2019-04-07T07:01:59.131Z,101304.47
2019-04-07T07:03:38.916Z,101297.08
2019-04-07T07:05:36.258Z,101303.59
2019-04-07T07:07:19.961Z,101289.41
2019-04-07T07:09:13.897Z,101289.34
2019-04-07T07:10:56.189Z,101289.26
2019-04-07T07:12:40.800Z,101294.51
2019-04-07T07:14:32.853Z,101294.51
2019-04-07T07:16:09.576Z,101294.95
2019-04-07T07:17:51.064Z,101304.55
2019-04-07T07:19:33.366Z,101296.48
2019-04-07T07:21:14.402Z,101297.91
2019-04-07T07:22:57.224Z,101303.53
2019-04-07T07:24:41.667Z,101297.94
2019-04-07T07:26:21.500Z,101302.13
2019-04-07T07:27:58.818Z,101302.81
2019-04-07T07:29:36.259Z,101306.80
2019-04-07T07:31:13.453Z,101300.94
2019-04-07T07:32:56.916Z,101297.89
2019-04-07T07:34:39.813Z,101293.09
2019-04-07T07:36:18.421Z,101292.82
2019-04-07T07:37:58.133Z,101299.28
2019-04-07T07:39:36.051Z,101298.73
2019-04-07T07:41:14.096Z,101292.50
2019-04-07T07:42:55.434Z,101292.40
2019-04-07T07:44:39.632Z,101286.50
2019-04-07T07:46:20.600Z,101281.22
2019-04-07T07:47:56.645Z,101283.06
2019-04-07T07:49:37.065Z,101278.02
2019-04-07T07:51:15.298Z,101277.02
2019-04-07T07:52:54.625Z,101271.26
2019-04-07T07:54:31.707Z,101275.27
2019-04-07T07:56:12.077Z,101277.25
2019-04-07T07:57:56.722Z,101283.53
2019-04-07T07:59:36.480Z,101277.63
2019-04-07T08:01:14.888Z,101281.50
2019-04-07T08:02:53.566Z,101264.42
2019-04-07T08:04:34.589Z,101273.44
2019-04-07T08:06:12.846Z,101267.34
2019-04-07T08:07:51.497Z,101270.67
2019-04-07T08:09:29.703Z,101266.92
2019-04-07T08:11:08.351Z,101267.06
2019-04-07T08:12:49.492Z,101264.39
2019-04-07T08:14:27.399Z,101258.73
2019-04-07T08:16:11.364Z,101256.89
2019-04-07T08:17:48.636Z,101251.27
2019-04-07T08:19:29.384Z,101274.92
2019-04-07T08:21:06.655Z,101268.13
2019-04-07T08:22:45.020Z,101255.64
2019-04-07T08:24:22.906Z,101249.36
2019-04-07T08:26:00.561Z,101244.72
2019-04-07T08:27:38.755Z,101249.39
2019-04-07T08:29:26.921Z,101241.16
2019-04-07T08:31:06.559Z,101244.44
2019-04-07T08:32:45.382Z,101238.05
2019-04-07T08:34:23.191Z,101240.59
2019-04-07T08:36:02.135Z,101229.49
2019-04-07T08:37:40.499Z,101229.49
2019-04-07T08:39:22.836Z,101239.12
2019-04-07T08:40:57.679Z,101232.45
2019-04-07T08:42:35.804Z,101230.45
2019-04-07T08:44:13.595Z,101222.36
2019-04-07T08:45:51.521Z,101225.11
2019-04-07T08:47:29.058Z,101227.61
2019-04-07T08:49:06.617Z,101217.80
2019-04-07T08:50:44.368Z,101211.45
2019-04-07T08:52:21.945Z,101236.29
2019-04-07T08:54:05.907Z,101241.53
2019-04-07T08:55:44.368Z,101236.78
2019-04-07T08:57:22.590Z,101236.81
2019-04-07T08:59:01.773Z,101233.53
2019-04-07T09:00:40.549Z,101229.74
2019-04-07T09:02:20.118Z,101239.31
2019-04-07T09:03:58.556Z,101240.84
2019-04-07T09:05:36.606Z,101240.15
2019-04-07T09:07:14.269Z,101237.55
2019-04-07T09:08:52.136Z,101231.01
2019-04-07T09:10:33.250Z,101232.69
2019-04-07T09:12:11.434Z,101223.36
2019-04-07T09:15:51.292Z,101221.80
2019-04-07T09:17:41.156Z,101226.31
2019-04-07T09:19:29.918Z,101226.48
2019-04-07T09:21:18.326Z,101219.17
2019-04-07T09:23:09.199Z,101220.67
2019-04-07T09:25:08.516Z,101213.13
2019-04-07T09:26:48.855Z,101210.58
2019-04-07T09:28:29.827Z,101193.29
2019-04-07T09:30:10.445Z,101199.13
2019-04-07T09:32:06.595Z,101197.27
2019-04-07T09:34:02.975Z,101183.96
2019-04-07T09:36:00.956Z,101189.83
2019-04-07T09:37:58.670Z,101173.77
2019-04-07T09:40:00.475Z,101173.25
2019-04-07T09:41:52.672Z,101159.66
2019-04-07T09:43:40.334Z,101172.68
2019-04-07T09:45:22.849Z,101173.63
2019-04-07T09:47:11.419Z,101164.84
2019-04-07T09:49:08.921Z,101166.94
2019-04-07T09:50:52.188Z,101172.86
2019-04-07T09:52:39.586Z,101165.59
2019-04-07T09:54:23.143Z,101163.99
2019-04-07T09:56:08.512Z,101170.23
2019-04-07T09:57:52.727Z,101149.42
2019-04-07T09:59:51.392Z,101142.16
2019-04-07T10:01:48.536Z,101143.33
2019-04-07T10:03:41.606Z,101145.31
2019-04-07T10:05:43.473Z,101151.10
2019-04-07T10:07:24.051Z,101162.15
2019-04-07T10:09:20.336Z,101159.11
2019-04-07T10:11:17.136Z,101154.02
2019-04-07T10:13:21.724Z,101150.49
2019-04-07T10:15:06.454Z,101155.09
2019-04-07T10:16:54.671Z,101162.25
2019-04-07T10:18:45.885Z,101160.12
2019-04-07T10:20:32.585Z,101162.61
2019-04-07T10:22:22.949Z,101153.55
2019-04-07T10:24:23.636Z,101148.67
2019-04-07T10:26:23.188Z,101144.80
2019-04-07T10:28:23.399Z,101138.91
2019-04-07T10:30:05.761Z,101127.77
2019-04-07T10:32:04.597Z,101122.60
2019-04-07T10:34:08.249Z,101118.16
2019-04-07T10:36:20.639Z,101118.16
2019-04-07T10:38:12.590Z,101129.16
2019-04-07T10:40:18.165Z,101119.78
2019-04-07T10:42:16.855Z,101109.70
2019-04-07T10:43:59.034Z,101127.85
2019-04-07T10:45:57.080Z,101131.45
2019-04-07T10:47:58.861Z,101129.88
2019-04-07T10:49:57.567Z,101118.91
2019-04-07T10:51:36.492Z,101127.23
2019-04-07T10:53:16.006Z,101117.80
2019-04-07T10:54:58.353Z,101120.25
2019-04-07T10:56:40.771Z,101120.12
2019-04-07T10:58:20.768Z,101097.66
2019-04-07T11:00:12.257Z,101097.66
2019-04-07T11:01:55.186Z,101112.88
2019-04-07T11:03:35.255Z,101099.48
2019-04-07T11:05:20.646Z,101097.63
2019-04-07T11:07:00.080Z,101099.02
2019-04-07T11:09:00.237Z,101097.78
2019-04-07T11:11:19.066Z,101097.78
2019-04-07T11:13:01.724Z,101094.30
2019-04-07T11:14:47.166Z,101094.71
2019-04-07T11:16:28.644Z,101085.23
2019-04-07T11:18:11.333Z,101096.64
2019-04-07T11:19:50.330Z,101082.10
2019-04-07T11:21:30.306Z,101084.56
2019-04-07T11:23:15.614Z,101087.02
2019-04-07T11:24:54.793Z,101088.47
2019-04-07T11:26:50.397Z,101083.86
2019-04-07T11:28:30.550Z,101087.92
2019-04-07T11:30:20.163Z,101082.86
2019-04-07T11:32:00.265Z,101074.73
2019-04-07T11:33:52.523Z,101073.27
2019-04-07T11:35:32.024Z,101071.25
2019-04-07T11:37:20.809Z,101073.95
2019-04-07T11:39:10.101Z,101060.22
2019-04-07T11:40:51.197Z,101056.70
2019-04-07T11:42:33.443Z,101056.86
2019-04-07T11:44:20.122Z,101060.94
2019-04-07T11:46:18.892Z,101052.21
2019-04-07T11:50:22.328Z,101032.44
2019-04-07T11:52:01.741Z,101032.36
2019-04-07T11:53:41.478Z,101032.36
2019-04-07T11:55:33.396Z,101051.20
2019-04-07T11:57:13.667Z,101050.70
2019-04-07T11:58:55.695Z,101045.98
2019-04-07T12:00:51.521Z,101038.48
2019-04-07T12:02:34.161Z,101024.97
2019-04-07T12:04:17.335Z,101024.97
2019-04-07T12:06:13.586Z,101041.06
2019-04-07T12:08:08.264Z,101036.08
2019-04-07T12:11:58.147Z,101034.50
2019-04-07T12:13:37.492Z,101025.42
2019-04-07T12:15:35.148Z,101018.47
2019-04-07T12:17:26.316Z,101023.45
2019-04-07T12:19:15.173Z,101011.60
2019-04-07T12:21:08.720Z,101011.60
2019-04-07T12:22:51.059Z,101004.80
2019-04-07T12:24:30.713Z,101008.52
2019-04-07T12:26:27.081Z,100999.83
2019-04-07T12:28:24.656Z,101004.06
2019-04-07T12:30:23.271Z,101008.72
2019-04-07T12:32:08.630Z,101009.14
2019-04-07T12:33:54.890Z,101001.51
2019-04-07T12:35:36.622Z,100999.58
2019-04-07T12:37:24.461Z,100986.15
2019-04-07T12:39:03.991Z,101010.21
2019-04-07T12:41:13.418Z,101003.77
2019-04-07T12:45:01.782Z,101000.28
2019-04-07T12:46:44.273Z,100997.98
2019-04-07T12:48:23.318Z,100993.46
2019-04-07T12:50:06.559Z,100994.30
2019-04-07T12:51:55.672Z,100997.04
2019-04-07T12:53:36.549Z,101002.78
2019-04-07T12:55:17.951Z,101006.58
2019-04-07T12:56:58.468Z,100991.70
2019-04-07T12:58:48.569Z,100988.53
2019-04-07T13:02:19.172Z,100991.77
2019-04-07T13:06:24.441Z,101000.83
2019-04-07T13:08:24.005Z,100998.82
2019-04-07T13:10:11.155Z,100988.25
2019-04-07T13:11:50.554Z,100995.84
2019-04-07T13:13:34.251Z,100991.46
2019-04-07T13:15:23.450Z,100988.38
2019-04-07T13:17:23.491Z,100988.18
2019-04-07T13:19:15.994Z,100969.41
2019-04-07T13:20:55.419Z,100969.41
2019-04-07T13:22:40.957Z,100965.94
2019-04-07T13:24:30.147Z,100965.94
2019-04-07T13:26:06.718Z,100956.23
2019-04-07T13:28:01.332Z,100963.44
2019-04-07T13:29:52.750Z,100959.62
2019-04-07T13:31:33.129Z,100972.33
2019-04-07T13:33:20.418Z,100972.33
2019-04-07T13:35:06.431Z,100985.54
2019-04-07T13:36:55.157Z,100978.41
2019-04-07T13:38:46.414Z,100981.55
2019-04-07T13:40:38.076Z,100976.91
2019-04-07T13:42:20.819Z,100980.24
2019-04-07T13:44:04.886Z,100980.29
2019-04-07T13:45:57.704Z,100983.08
2019-04-07T13:47:48.627Z,100978.58
2019-04-07T13:49:50.179Z,100989.77
2019-04-07T13:51:30.422Z,100981.71
2019-04-07T13:53:12.547Z,100982.02
2019-04-07T13:54:52.597Z,100976.91
2019-04-07T13:56:37.574Z,100980.86
2019-04-07T13:58:26.159Z,100978.58
2019-04-07T14:00:08.271Z,100974.31
2019-04-07T14:01:53.017Z,100977.67
2019-04-07T14:03:31.734Z,100978.58
2019-04-07T14:05:28.083Z,100978.98
2019-04-07T14:07:23.733Z,100982.84
2019-04-07T14:09:27.171Z,100975.97
2019-04-07T14:11:14.411Z,100983.41
2019-04-07T14:13:12.674Z,100975.55
2019-04-07T14:15:00.273Z,100977.13
2019-04-07T14:16:45.150Z,100978.20
2019-04-07T14:18:24.509Z,100983.56
2019-04-07T14:20:03.938Z,100975.85
2019-04-07T14:21:50.469Z,100980.33
2019-04-07T14:23:41.109Z,100976.92
2019-04-07T14:25:36.220Z,100974.93
2019-04-07T14:27:35.094Z,100976.47
2019-04-07T14:29:31.660Z,100977.05
2019-04-07T14:31:10.933Z,100981.94
2019-04-07T14:32:50.977Z,100977.05
2019-04-07T14:34:35.827Z,100971.64
2019-04-07T14:36:31.574Z,100986.46
2019-04-07T14:38:21.254Z,100972.87
2019-04-07T14:40:18.411Z,100972.28
2019-04-07T14:42:04.618Z,100978.20
2019-04-07T14:43:49.644Z,100982.16
2019-04-07T14:45:39.634Z,100980.77
2019-04-07T14:47:34.560Z,100983.02
2019-04-07T14:49:28.648Z,100981.11
2019-04-07T14:51:19.565Z,100987.61
2019-04-07T14:53:00.791Z,100979.50
2019-04-07T15:23:44.990Z,101001.19
2019-04-07T15:25:24.713Z,101003.18
2019-04-07T15:27:05.624Z,101005.99
2019-04-07T15:28:42.599Z,101005.46
2019-04-07T15:30:25.436Z,101003.81
2019-04-07T15:32:10.609Z,100999.11
2019-04-07T15:33:50.877Z,101001.59
2019-04-07T15:35:42.658Z,100995.56
2019-04-07T15:37:22.896Z,100997.50
2019-04-07T15:39:01.540Z,100994.66
2019-04-07T15:40:47.341Z,101006.73
2019-04-07T15:42:39.110Z,101004.40
2019-04-07T15:44:16.858Z,101001.81
2019-04-07T15:45:57.214Z,100999.66
2019-04-07T15:47:39.203Z,100996.92
2019-04-07T15:49:20.467Z,101004.89
2019-04-07T15:51:04.845Z,101000.41
2019-04-07T15:52:45.900Z,100997.91
2019-04-07T15:54:43.505Z,100998.16
2019-04-07T15:56:21.537Z,101002.89
2019-04-07T15:58:02.059Z,101006.47
2019-04-07T15:59:42.495Z,101004.70
2019-04-07T16:01:21.790Z,101006.19
2019-04-07T16:03:01.328Z,101006.31
2019-04-07T16:04:41.808Z,101005.11
2019-04-07T16:06:20.666Z,101006.88
2019-04-07T16:08:02.439Z,101011.38
2019-04-07T16:09:49.285Z,101004.00
2019-04-07T16:11:23.476Z,101002.58
2019-04-07T16:13:02.779Z,101008.89
2019-04-07T16:14:44.899Z,101008.83
2019-04-07T16:16:21.065Z,101016.63
2019-04-07T16:18:04.128Z,101011.91
2019-04-07T16:19:50.906Z,101009.41
2019-04-07T16:21:27.704Z,101021.84
2019-04-07T16:23:10.412Z,101018.16
2019-04-07T16:24:53.841Z,101019.06
2019-04-07T16:26:35.727Z,101022.67
2019-04-07T16:28:14.435Z,101027.06
2019-04-07T16:29:52.706Z,101035.55
2019-04-07T16:31:32.284Z,101031.08
2019-04-07T16:33:11.447Z,101032.14
2019-04-07T16:34:53.111Z,101038.77
2019-04-07T16:36:35.509Z,101037.34
2019-04-07T16:38:17.465Z,101041.30
2019-04-07T16:39:58.146Z,101047.91
2019-04-07T16:41:37.672Z,101044.47
2019-04-07T16:43:18.865Z,101042.84
2019-04-07T16:44:56.943Z,101041.86
2019-04-07T16:46:35.708Z,101046.59
2019-04-07T16:48:14.130Z,101046.31
2019-04-07T16:49:56.408Z,101051.43
2019-04-07T16:51:36.311Z,101053.47
2019-04-07T16:53:13.981Z,101057.60
2019-04-07T16:54:56.036Z,101053.33
2019-04-07T16:56:38.004Z,101053.69
2019-04-07T16:58:16.065Z,101058.77
2019-04-07T16:59:56.342Z,101064.75
2019-04-07T17:01:35.236Z,101062.62
2019-04-07T17:03:15.272Z,101064.84
2019-04-07T17:04:54.814Z,101066.66
2019-04-07T17:06:36.066Z,101063.80
2019-04-07T17:08:17.644Z,101069.20
2019-04-07T17:10:02.766Z,101066.63
2019-04-07T17:11:49.335Z,101073.92
2019-04-07T17:13:37.100Z,101076.64
2019-04-07T17:15:10.429Z,101071.99
2019-04-07T17:16:48.702Z,101083.95
2019-04-07T17:18:43.408Z,101080.38
2019-04-07T17:20:20.588Z,101081.09
2019-04-07T17:21:59.381Z,101085.47
2019-04-07T17:23:38.795Z,101081.21
2019-04-07T17:25:19.276Z,101083.02
2019-04-07T17:26:58.163Z,101090.19
2019-04-07T17:28:37.774Z,101089.47
2019-04-07T17:30:20.005Z,101094.02
2019-04-07T17:32:01.263Z,101093.56
2019-04-07T17:33:38.120Z,101091.23
2019-04-07T17:35:18.560Z,101091.36
2019-04-07T17:36:56.469Z,101088.66
2019-04-07T17:38:51.977Z,101094.22
2019-04-07T17:40:32.488Z,101094.02
2019-04-07T17:42:12.175Z,101087.17
2019-04-07T17:44:08.326Z,101093.29
2019-04-07T17:45:48.026Z,101092.86
2019-04-07T17:47:43.081Z,101090.63
2019-04-07T17:49:40.934Z,101094.84
2019-04-07T17:51:39.319Z,101096.69
2019-04-07T17:53:19.366Z,101101.08
2019-04-07T17:55:05.040Z,101096.09
2019-04-07T17:57:03.139Z,101093.31
2019-04-07T17:58:44.300Z,101101.92
2019-04-07T18:00:30.094Z,101095.88
2019-04-07T18:02:11.045Z,101102.92
2019-04-07T18:03:56.367Z,101098.80
2019-04-07T18:05:43.185Z,101106.30
2019-04-07T18:07:26.335Z,101108.87
2019-04-07T18:09:12.875Z,101105.70
2019-04-07T18:10:56.008Z,101102.18
2019-04-07T18:12:37.853Z,101104.25
2019-04-07T18:14:20.825Z,101102.70
2019-04-07T18:16:08.324Z,101101.95
2019-04-07T18:18:01.693Z,101097.98
2019-04-07T18:19:59.482Z,101102.59
2019-04-07T18:21:56.686Z,101106.52
2019-04-07T18:23:47.208Z,101104.86
2019-04-07T18:25:39.098Z,101098.77
2019-04-07T18:27:25.329Z,101100.61
2019-04-07T18:29:08.046Z,101103.99
2019-04-07T18:30:56.259Z,101105.03
2019-04-07T18:32:36.258Z,101105.12
2019-04-07T18:34:25.148Z,101103.45
2019-04-07T18:36:11.992Z,101104.81
2019-04-07T18:38:00.107Z,101097.77
2019-04-07T18:39:55.100Z,101097.41
2019-04-07T18:41:41.534Z,101098.83
2019-04-07T18:43:37.074Z,101097.16
2019-04-07T18:45:18.900Z,101098.09
2019-04-07T18:47:03.229Z,101108.53
2019-04-07T18:48:59.117Z,101102.84
2019-04-07T18:50:39.656Z,101098.40
2019-04-07T18:52:25.729Z,101104.75
2019-04-07T18:54:05.503Z,101105.65
2019-04-07T18:56:02.413Z,101103.03
2019-04-07T18:57:58.504Z,101106.20
2019-04-07T19:02:49.405Z,101101.05
2019-04-07T19:04:30.365Z,101102.12
2019-04-07T19:06:30.193Z,101094.98
2019-04-07T19:08:17.472Z,101098.95
2019-04-07T19:10:09.785Z,101096.87
2019-04-07T19:11:42.769Z,101101.01
2019-04-07T19:13:27.635Z,101095.68
2019-04-07T19:15:13.461Z,101095.74
2019-04-07T19:16:54.555Z,101102.50
2019-04-07T19:18:45.258Z,101106.09
2019-04-07T19:20:28.145Z,101106.53
2019-04-07T19:22:15.897Z,101100.34
2019-04-07T19:23:59.216Z,101094.11
2019-04-07T19:25:55.322Z,101096.86
2019-04-07T19:27:54.159Z,101101.36
2019-04-07T19:29:34.072Z,101095.25
2019-04-07T19:31:21.648Z,101099.28
2019-04-07T19:33:17.734Z,101097.03
2019-04-07T19:35:02.041Z,101096.21
2019-04-07T19:36:49.833Z,101097.98
2019-04-07T19:38:37.848Z,101095.34
2019-04-07T19:40:17.341Z,101102.11
2019-04-07T19:42:15.399Z,101100.77
2019-04-07T19:44:06.784Z,101095.49
2019-04-07T19:46:13.473Z,101099.08
2019-04-07T19:47:54.887Z,101108.13
2019-04-07T19:49:52.982Z,101104.16
2019-04-07T19:51:39.931Z,101107.31
2019-04-07T19:53:36.643Z,101104.23
2019-04-07T19:55:34.980Z,101110.39
2019-04-07T19:57:18.043Z,101107.31
2019-04-07T19:58:58.721Z,101114.55
2019-04-07T20:00:55.042Z,101108.35
2019-04-07T20:02:39.061Z,101111.94
2019-04-07T20:04:18.527Z,101111.99
2019-04-07T20:06:00.598Z,101112.94
2019-04-07T20:07:42.028Z,101111.17
2019-04-07T20:09:30.120Z,101116.61
2019-04-07T20:11:09.949Z,101115.28
2019-04-07T20:12:56.241Z,101115.83
2019-04-07T20:14:47.359Z,101117.60
2019-04-07T20:16:30.601Z,101111.89
2019-04-07T20:18:33.103Z,101120.88
2019-04-07T20:22:41.549Z,101110.23
2019-04-07T20:24:23.869Z,101115.23
2019-04-07T20:26:19.406Z,101119.73
2019-04-07T20:27:59.478Z,101113.93
2019-04-07T20:30:03.337Z,101117.98
2019-04-07T20:31:45.053Z,101118.42
2019-04-07T20:33:29.938Z,101116.75
2019-04-07T20:35:14.289Z,101119.87
2019-04-07T20:37:11.591Z,101115.45
2019-04-07T20:38:58.615Z,101116.35